Terminal Aerodrome Forecast
Issued by NWS Blacksburg, VA

Current Version | Previous Version | Graphics & Text | Print | Product List | Glossary Off
Versions: 1 2 3 4 5 6 7 8 9 10 11 12 13 14 15 16 17 18 19 20 21 22 23 24 25 26

000
FTUS41 KRNK 302321
TAFBLF
TAF
KBLF 302321Z 3100/3124 15011KT P6SM BKN015
      TEMPO 3102/3106 4SM -RA OVC007
     FM310600 15011KT P6SM VCSH OVC015
     FM310800 15010KT 3SM SHRA OVC015
     FM311200 18009KT 4SM -SHRA OVC015
     FM311400 22008KT 5SM -SHRA OVC015
     FM311800 26011KT 5SM -SHRA OVC030=

USA.gov is the U.S. government's official web portal to all federal, state and local government web resources and services.